Time;durP1;ratioP1;P1;durP2;ratioP2;P2;SDS_P1;SDS_P2;PMS_P1;PMS_P2;Temp;Humidity;BMP_temperature;BMP_pressure;BME280_temperature;BME280_humidity;BME280_pressure;Samples;Min_cycle;Max_cycle;Signal;HPM_P1;HPM_P2
2021/12/25 00:02:09;;;;;;;9.38;8.43;;;7.10;84.60;;;;;;5032194;28;20033;-74
2021/12/25 00:04:35;;;;;;;9.15;8.23;;;7.00;84.60;;;;;;5011337;28;20037;-75
2021/12/25 00:07:02;;;;;;;9.43;8.30;;;7.00;84.80;;;;;;5029772;28;20033;-75
2021/12/25 00:09:27;;;;;;;9.00;8.07;;;6.90;84.70;;;;;;5024647;28;20026;-75
2021/12/25 00:11:53;;;;;;;8.90;7.97;;;6.90;84.60;;;;;;5030915;28;20022;-75
2021/12/25 00:14:22;;;;;;;9.15;8.13;;;6.90;84.60;;;;;;5044736;28;20049;-75
2021/12/25 00:16:47;;;;;;;9.32;8.32;;;6.90;84.70;;;;;;5043094;28;20029;-75
2021/12/25 00:19:13;;;;;;;9.05;8.15;;;6.80;84.80;;;;;;5041628;28;20079;-75
2021/12/25 00:21:39;;;;;;;9.90;8.68;;;6.80;84.80;;;;;;5026276;28;20018;-75
2021/12/25 00:24:05;;;;;;;9.10;8.20;;;6.80;84.70;;;;;;5043729;28;20021;-74
2021/12/25 00:26:44;;;;;;;10.10;8.77;;;6.80;84.60;;;;;;5047835;28;20029;-74
2021/12/25 00:34:41;;;;;;;9.18;8.15;;;6.70;84.40;;;;;;5045047;28;20107;-75
2021/12/25 00:37:08;;;;;;;8.60;7.55;;;6.70;84.40;;;;;;5036725;28;20033;-75
2021/12/25 00:39:34;;;;;;;8.52;7.20;;;6.70;84.50;;;;;;5033413;28;20025;-75
2021/12/25 00:42:02;;;;;;;9.05;7.57;;;6.70;84.40;;;;;;5021694;28;20029;-74
2021/12/25 00:44:28;;;;;;;7.55;6.82;;;6.70;84.40;;;;;;5048284;28;20017;-75
2021/12/25 00:46:55;;;;;;;7.63;6.90;;;6.70;84.40;;;;;;5035308;28;20068;-74
2021/12/25 00:49:21;;;;;;;8.40;6.45;;;6.60;84.20;;;;;;5048491;28;20029;-74
2021/12/25 00:51:46;;;;;;;6.70;6.00;;;6.60;84.20;;;;;;5048539;28;20044;-74
2021/12/25 00:54:14;;;;;;;6.47;5.88;;;6.50;84.20;;;;;;5048219;28;20117;-74
2021/12/25 00:56:40;;;;;;;6.05;5.45;;;6.50;84.20;;;;;;5041259;28;20094;-74
2021/12/25 00:59:06;;;;;;;7.50;6.70;;;6.50;84.10;;;;;;5047509;28;20037;-74
2021/12/25 01:01:31;;;;;;;7.03;6.32;;;6.50;84.00;;;;;;5037962;28;20029;-74
2021/12/25 01:03:57;;;;;;;7.28;6.43;;;6.50;83.90;;;;;;5048314;28;20487;-74
2021/12/25 01:06:23;;;;;;;6.97;6.28;;;6.40;83.80;;;;;;5038670;28;20049;-75
2021/12/25 01:08:48;;;;;;;7.03;6.32;;;6.40;83.90;;;;;;5044726;28;20055;-74
2021/12/25 01:11:15;;;;;;;6.78;6.10;;;6.40;83.90;;;;;;5039137;28;20033;-74
2021/12/25 01:13:47;;;;;;;8.00;7.20;;;6.30;83.90;;;;;;5031194;28;20029;-74
2021/12/25 01:27:24;;;;;;;9.88;8.88;;;6.10;83.40;;;;;;5031715;28;20083;-74
2021/12/25 01:30:01;;;;;;;10.27;9.27;;;6.00;83.40;;;;;;5030260;28;20052;-74
2021/12/25 01:32:56;;;;;;;10.75;9.65;;;6.10;83.40;;;;;;5030703;28;20041;-74
2021/12/25 01:35:45;;;;;;;10.50;9.40;;;6.00;83.30;;;;;;5010486;28;20037;-74
2021/12/25 01:38:36;;;;;;;12.40;11.10;;;6.00;83.90;;;;;;5061057;28;20030;-74
2021/12/25 01:48:59;;;;;;;14.85;12.85;;;5.80;83.00;;;;;;5031417;28;20048;-74
2021/12/25 01:51:25;;;;;;;13.65;12.00;;;5.80;82.80;;;;;;5030589;28;20911;-74
2021/12/25 01:53:51;;;;;;;13.73;12.23;;;5.80;82.80;;;;;;5031170;28;20509;-74
2021/12/25 01:56:16;;;;;;;14.90;12.80;;;5.80;82.80;;;;;;5038972;28;20052;-74
2021/12/25 01:58:42;;;;;;;15.45;13.27;;;5.80;82.80;;;;;;5028922;28;20050;-75
2021/12/25 02:01:09;;;;;;;15.85;13.70;;;5.80;82.70;;;;;;5028846;28;20030;-75
2021/12/25 02:03:36;;;;;;;15.07;12.48;;;5.80;82.60;;;;;;5029043;28;20436;-74
2021/12/25 02:06:04;;;;;;;15.57;13.52;;;5.70;82.60;;;;;;5031080;28;20025;-74
2021/12/25 02:08:30;;;;;;;17.17;14.63;;;5.70;82.70;;;;;;5030662;28;20045;-74
2021/12/25 02:10:56;;;;;;;17.05;14.00;;;5.70;82.60;;;;;;5029275;28;20029;-74
2021/12/25 02:13:22;;;;;;;19.40;14.32;;;5.60;82.50;;;;;;5023148;28;20033;-74
2021/12/25 02:15:50;;;;;;;18.77;15.55;;;5.70;82.60;;;;;;5040826;28;20029;-74
2021/12/25 02:18:55;;;;;;;18.90;15.27;;;5.60;82.50;;;;;;5041576;28;20434;-74
2021/12/25 02:23:36;;;;;;;20.45;16.45;;;5.50;82.40;;;;;;5044196;28;20416;-74
2021/12/25 02:26:02;;;;;;;20.02;15.82;;;5.40;82.50;;;;;;5044198;28;20027;-74
2021/12/25 02:28:28;;;;;;;22.33;16.52;;;5.40;82.50;;;;;;5043732;28;20033;-74
2021/12/25 02:30:58;;;;;;;20.98;16.60;;;5.40;82.70;;;;;;5042694;28;20033;-74
2021/12/25 02:33:26;;;;;;;20.55;16.58;;;5.40;82.50;;;;;;5043690;28;20045;-74
2021/12/25 02:35:52;;;;;;;19.95;16.83;;;5.40;83.00;;;;;;5027478;28;20102;-74
2021/12/25 02:38:18;;;;;;;23.73;18.00;;;5.30;82.40;;;;;;5035975;28;20021;-75
2021/12/25 02:40:43;;;;;;;22.08;16.85;;;5.30;82.40;;;;;;5043882;28;20032;-74
2021/12/25 02:43:09;;;;;;;22.52;17.38;;;5.30;82.50;;;;;;5046552;28;20539;-74
2021/12/25 02:45:35;;;;;;;21.70;16.67;;;5.30;82.50;;;;;;5044924;28;20489;-74
2021/12/25 02:48:09;;;;;;;19.58;16.40;;;5.30;82.60;;;;;;5050283;28;20112;-74
2021/12/25 02:50:36;;;;;;;21.50;16.42;;;5.30;82.70;;;;;;5046725;28;20128;-74
2021/12/25 02:53:04;;;;;;;20.10;15.82;;;5.20;82.80;;;;;;5050039;28;20025;-74
2021/12/25 02:55:31;;;;;;;21.77;16.52;;;5.20;82.80;;;;;;5036160;28;20464;-74
2021/12/25 02:57:57;;;;;;;22.40;16.83;;;5.20;82.90;;;;;;5041719;28;20113;-74
2021/12/25 03:00:26;;;;;;;21.13;16.05;;;5.20;82.90;;;;;;5043205;28;20091;-74
2021/12/25 03:02:51;;;;;;;24.42;17.92;;;5.20;83.00;;;;;;5047165;28;20025;-74
2021/12/25 03:05:18;;;;;;;23.50;17.98;;;5.20;83.00;;;;;;5012688;28;20033;-74
2021/12/25 03:07:44;;;;;;;23.35;16.80;;;5.20;83.00;;;;;;5034940;28;20057;-74
2021/12/25 03:10:12;;;;;;;22.73;17.73;;;5.10;82.90;;;;;;5043129;28;20068;-74
2021/12/25 03:15:46;;;;;;;21.30;16.48;;;5.10;83.10;;;;;;5037174;28;20033;-74
2021/12/25 03:18:32;;;;;;;22.52;16.13;;;5.10;83.10;;;;;;5046522;28;20117;-74
2021/12/25 03:21:00;;;;;;;24.73;17.33;;;5.00;83.00;;;;;;5037807;28;20492;-74
2021/12/25 03:23:28;;;;;;;20.30;14.80;;;5.00;82.90;;;;;;5022019;28;20480;-74
2021/12/25 03:25:56;;;;;;;22.05;15.48;;;5.00;82.90;;;;;;5038027;28;20489;-74
2021/12/25 03:28:24;;;;;;;23.65;16.73;;;5.00;82.90;;;;;;5046150;28;20083;-74
2021/12/25 03:30:50;;;;;;;20.55;14.65;;;5.00;82.70;;;;;;5034146;28;20029;-74
2021/12/25 03:33:19;;;;;;;20.27;14.90;;;4.90;82.80;;;;;;5047813;28;20036;-74
2021/12/25 03:35:46;;;;;;;18.55;14.35;;;4.90;82.70;;;;;;5040780;28;20064;-74
2021/12/25 03:38:15;;;;;;;21.95;14.90;;;4.90;82.80;;;;;;5045436;28;20041;-75
2021/12/25 03:40:42;;;;;;;21.58;14.15;;;4.90;82.70;;;;;;5033345;28;20455;-74
2021/12/25 03:43:08;;;;;;;18.80;13.27;;;4.90;82.70;;;;;;5043786;28;20048;-74
2021/12/25 03:45:35;;;;;;;19.38;13.18;;;4.90;82.50;;;;;;5031511;28;20029;-74
2021/12/25 03:58:49;;;;;;;17.27;12.13;;;4.70;82.40;;;;;;5020193;28;20052;-74
2021/12/25 04:04:13;;;;;;;18.05;11.10;;;4.70;82.60;;;;;;5036188;28;20031;-74
2021/12/25 04:06:49;;;;;;;16.30;11.23;;;4.70;82.60;;;;;;5035305;28;20412;-74
2021/12/25 04:09:30;;;;;;;15.35;10.75;;;4.60;82.50;;;;;;5047883;28;20531;-74
2021/12/25 04:12:01;;;;;;;14.82;9.90;;;4.60;82.50;;;;;;5041368;28;20369;-74
2021/12/25 04:14:27;;;;;;;15.43;10.07;;;4.50;82.40;;;;;;5033363;28;20033;-74
2021/12/25 04:16:53;;;;;;;12.65;9.52;;;4.50;82.40;;;;;;5045872;28;20067;-74
2021/12/25 04:19:20;;;;;;;13.30;9.50;;;4.50;82.40;;;;;;5034804;28;20021;-74
2021/12/25 04:21:55;;;;;;;11.32;8.80;;;4.50;82.40;;;;;;5044519;28;20029;-74
2021/12/25 04:24:21;;;;;;;11.18;7.82;;;4.40;82.40;;;;;;5042644;28;20036;-74
2021/12/25 04:26:48;;;;;;;10.68;7.85;;;4.50;82.50;;;;;;5039462;28;20053;-74
2021/12/25 04:42:55;;;;;;;11.27;7.30;;;4.30;81.80;;;;;;5031547;28;20524;-74
2021/12/25 05:04:54;;;;;;;7.72;5.35;;;4.00;81.20;;;;;;5029834;28;20495;-74
2021/12/25 05:07:07;;;;;;;5.38;4.38;;;3.90;81.10;;;;;;5030457;28;20037;-74
2021/12/25 05:09:32;;;;;;;6.75;4.07;;;3.90;81.20;;;;;;5038064;28;20403;-74
2021/12/25 05:11:58;;;;;;;5.30;3.78;;;3.90;80.90;;;;;;5031307;28;20099;-74
2021/12/25 05:14:24;;;;;;;6.53;3.38;;;3.90;80.80;;;;;;5036150;28;20366;-74
2021/12/25 05:16:50;;;;;;;4.43;3.03;;;3.90;80.60;;;;;;5034401;28;20032;-74
2021/12/25 05:19:16;;;;;;;4.78;3.05;;;3.90;80.60;;;;;;5042130;28;20477;-74
2021/12/25 05:21:42;;;;;;;5.47;2.90;;;3.80;80.20;;;;;;5039031;28;20032;-74
2021/12/25 05:24:07;;;;;;;3.25;2.78;;;3.80;80.20;;;;;;5035383;28;20535;-74
2021/12/25 05:26:33;;;;;;;4.05;2.35;;;3.80;80.10;;;;;;5034692;28;20113;-74
2021/12/25 05:29:01;;;;;;;3.97;2.40;;;3.80;80.10;;;;;;5031375;28;20018;-74
2021/12/25 05:31:29;;;;;;;6.28;2.53;;;3.80;79.90;;;;;;5013802;28;20428;-74
2021/12/25 05:33:55;;;;;;;3.05;2.10;;;3.80;79.70;;;;;;5011686;28;20044;-74
2021/12/25 05:36:24;;;;;;;4.85;2.20;;;3.70;79.70;;;;;;5023320;28;20030;-74
2021/12/25 05:38:50;;;;;;;3.75;2.40;;;3.70;79.70;;;;;;5036414;28;20021;-74
2021/12/25 05:41:16;;;;;;;3.88;2.40;;;3.70;79.70;;;;;;5042180;28;20442;-74
2021/12/25 05:43:42;;;;;;;2.75;2.40;;;3.60;79.40;;;;;;5031296;28;20066;-74
2021/12/25 05:46:08;;;;;;;2.65;2.25;;;3.60;79.50;;;;;;5044809;28;20024;-74
2021/12/25 05:48:35;;;;;;;3.92;2.30;;;3.60;79.50;;;;;;5050251;28;20032;-74
2021/12/25 05:51:05;;;;;;;3.90;2.10;;;3.50;79.40;;;;;;5033279;28;20425;-74
2021/12/25 05:53:32;;;;;;;2.53;2.28;;;3.50;79.30;;;;;;5030055;28;20048;-74
2021/12/25 05:55:58;;;;;;;3.78;2.70;;;3.50;79.30;;;;;;5030824;28;20033;-73
2021/12/25 05:58:23;;;;;;;3.65;2.47;;;3.40;79.10;;;;;;5029940;28;20527;-73
2021/12/25 06:00:49;;;;;;;4.72;2.58;;;3.40;79.30;;;;;;5029575;28;20024;-73
2021/12/25 06:03:15;;;;;;;4.20;2.42;;;3.40;79.40;;;;;;5031489;28;20449;-73
2021/12/25 06:05:41;;;;;;;3.47;2.38;;;3.40;79.50;;;;;;5010192;28;20453;-73
2021/12/25 06:08:06;;;;;;;4.28;2.20;;;3.40;79.30;;;;;;5030943;28;20030;-73
2021/12/25 06:10:32;;;;;;;3.83;2.72;;;3.40;79.30;;;;;;5028502;28;20110;-74
2021/12/25 06:12:59;;;;;;;3.55;3.00;;;3.30;79.40;;;;;;5031046;28;20044;-74
2021/12/25 06:15:26;;;;;;;4.38;2.83;;;3.30;79.30;;;;;;5031092;28;20037;-73
2021/12/25 06:17:52;;;;;;;4.30;2.90;;;3.30;79.50;;;;;;5034225;28;20034;-73
2021/12/25 06:20:18;;;;;;;4.00;2.58;;;3.30;79.40;;;;;;5028725;28;20033;-74
2021/12/25 06:22:44;;;;;;;6.88;3.03;;;3.30;79.40;;;;;;5030588;28;20029;-73
2021/12/25 06:25:10;;;;;;;7.90;3.53;;;3.30;80.00;;;;;;5029059;28;20444;-74
2021/12/25 06:27:37;;;;;;;6.47;3.03;;;3.30;79.20;;;;;;5030378;28;20113;-73
2021/12/25 06:30:04;;;;;;;3.88;2.90;;;3.30;79.10;;;;;;5028625;28;20470;-73
2021/12/25 06:32:29;;;;;;;4.32;3.00;;;3.30;79.00;;;;;;5028699;28;20493;-74
2021/12/25 06:34:55;;;;;;;4.35;3.40;;;3.20;78.90;;;;;;5045547;28;20043;-74
2021/12/25 06:37:23;;;;;;;4.15;3.42;;;3.20;78.90;;;;;;5018756;28;20053;-73
2021/12/25 06:39:49;;;;;;;3.85;2.95;;;3.10;78.80;;;;;;5030458;28;20034;-74
2021/12/25 06:42:15;;;;;;;3.65;3.25;;;3.10;78.80;;;;;;5040302;28;20021;-74
2021/12/25 06:44:41;;;;;;;5.07;3.70;;;3.10;78.80;;;;;;5045020;28;20029;-74
2021/12/25 06:47:06;;;;;;;3.78;3.40;;;3.00;78.40;;;;;;5042481;28;20037;-73
2021/12/25 06:49:32;;;;;;;4.13;3.53;;;3.00;78.60;;;;;;5034988;28;20084;-74
2021/12/25 06:51:58;;;;;;;4.85;2.92;;;3.00;78.80;;;;;;5042677;28;20029;-74
2021/12/25 06:54:23;;;;;;;5.68;3.58;;;2.90;78.80;;;;;;5037461;28;20392;-74
2021/12/25 06:56:49;;;;;;;3.80;3.20;;;3.00;79.00;;;;;;5036327;28;20033;-73
2021/12/25 06:59:16;;;;;;;3.58;3.28;;;3.00;78.90;;;;;;5018314;28;20051;-74
2021/12/25 07:01:42;;;;;;;5.80;3.03;;;3.00;78.80;;;;;;5028298;28;20041;-74
2021/12/25 07:04:08;;;;;;;6.00;3.20;;;3.00;78.80;;;;;;5050021;28;20377;-73
2021/12/25 07:06:35;;;;;;;4.93;2.92;;;3.00;78.70;;;;;;5030729;28;20362;-73
2021/12/25 07:09:01;;;;;;;4.88;3.40;;;2.90;79.30;;;;;;5003971;28;20038;-74
2021/12/25 07:11:27;;;;;;;4.90;3.35;;;2.90;78.50;;;;;;5044657;28;20051;-74
2021/12/25 07:13:52;;;;;;;4.07;2.95;;;2.90;78.40;;;;;;5043152;28;20108;-74
2021/12/25 07:16:19;;;;;;;4.85;3.30;;;2.90;78.50;;;;;;5036696;28;20036;-74
2021/12/25 07:18:45;;;;;;;4.53;2.92;;;2.80;78.30;;;;;;5035615;28;20065;-73
2021/12/25 07:21:11;;;;;;;2.85;2.58;;;2.90;78.30;;;;;;5033702;28;20026;-74
2021/12/25 07:23:37;;;;;;;5.10;3.00;;;2.80;78.20;;;;;;5036332;28;20044;-74
2021/12/25 07:26:04;;;;;;;4.55;3.00;;;2.80;78.30;;;;;;5041031;28;20034;-73
2021/12/25 07:28:29;;;;;;;3.97;3.35;;;2.80;78.40;;;;;;5043532;28;20032;-73
2021/12/25 07:30:58;;;;;;;3.20;2.70;;;2.80;78.30;;;;;;5041456;28;20083;-74
2021/12/25 07:33:24;;;;;;;4.57;3.00;;;2.70;78.30;;;;;;5037811;28;20021;-74
2021/12/25 07:35:50;;;;;;;7.20;3.00;;;2.70;78.20;;;;;;5043564;28;20551;-73
2021/12/25 07:38:18;;;;;;;3.08;2.78;;;2.70;78.10;;;;;;5040383;28;20115;-73
2021/12/25 07:40:44;;;;;;;4.07;3.22;;;2.70;77.90;;;;;;5042892;28;20021;-73
2021/12/25 07:43:10;;;;;;;5.25;3.30;;;2.60;77.70;;;;;;5043782;28;20028;-73
2021/12/25 07:45:36;;;;;;;4.82;3.50;;;2.60;77.70;;;;;;5040410;28;20498;-73
2021/12/25 07:48:02;;;;;;;5.82;4.30;;;2.60;77.70;;;;;;5043026;28;20083;-73
2021/12/25 07:50:31;;;;;;;4.88;4.10;;;2.50;78.40;;;;;;5048324;28;20111;-73
2021/12/25 07:52:58;;;;;;;4.53;3.25;;;2.50;77.80;;;;;;5034605;28;20051;-73
2021/12/25 07:55:25;;;;;;;4.40;3.15;;;2.40;77.70;;;;;;5048756;28;20036;-73
2021/12/25 07:57:50;;;;;;;5.75;3.58;;;2.40;77.80;;;;;;5045310;28;20136;-72
2021/12/25 08:00:17;;;;;;;4.63;3.65;;;2.40;77.80;;;;;;5024978;28;20042;-73
2021/12/25 08:02:45;;;;;;;4.47;3.13;;;2.40;77.70;;;;;;5027018;28;20034;-73
2021/12/25 08:05:11;;;;;;;4.40;3.35;;;2.40;77.50;;;;;;5023678;28;20022;-74
2021/12/25 08:07:37;;;;;;;5.28;3.85;;;2.40;77.30;;;;;;5020315;28;20034;-75
2021/12/25 08:10:13;;;;;;;3.58;2.92;;;2.40;76.90;;;;;;5024211;28;20038;-72
2021/12/25 08:12:57;;;;;;;3.95;3.28;;;2.30;77.00;;;;;;5024729;28;20026;-72
2021/12/25 08:15:28;;;;;;;5.38;3.45;;;2.20;76.90;;;;;;5021209;28;20068;-72
2021/12/25 08:17:55;;;;;;;3.72;3.13;;;2.20;76.80;;;;;;5023824;28;20059;-72
2021/12/25 08:20:21;;;;;;;6.45;3.17;;;2.10;76.80;;;;;;5016947;28;20037;-72
2021/12/25 08:22:47;;;;;;;4.63;2.80;;;2.10;76.60;;;;;;5021464;28;20379;-70
2021/12/25 08:25:14;;;;;;;3.00;2.50;;;2.00;77.20;;;;;;5021374;28;20041;-73
2021/12/25 08:27:41;;;;;;;3.15;2.33;;;2.00;76.70;;;;;;5025153;28;20118;-75
2021/12/25 08:30:11;;;;;;;2.97;2.42;;;2.00;76.60;;;;;;5019403;28;20034;-74
2021/12/25 08:32:39;;;;;;;3.90;2.67;;;1.90;76.40;;;;;;5019435;28;20044;-76
2021/12/25 08:35:05;;;;;;;3.53;2.15;;;1.90;76.40;;;;;;5029134;28;20033;-75
2021/12/25 08:37:31;;;;;;;4.63;2.35;;;1.80;76.50;;;;;;5020065;28;20067;-74
2021/12/25 08:39:57;;;;;;;3.13;2.38;;;1.80;76.20;;;;;;5023610;28;20037;-73
2021/12/25 08:42:23;;;;;;;3.33;2.10;;;1.80;76.40;;;;;;5024098;28;20507;-74
2021/12/25 08:45:04;;;;;;;2.38;1.98;;;1.70;76.30;;;;;;5023872;28;20033;-73
2021/12/25 08:47:34;;;;;;;4.53;2.67;;;1.70;76.30;;;;;;5026944;28;20030;-76
2021/12/25 08:50:03;;;;;;;1.83;1.63;;;1.70;76.30;;;;;;5025026;28;20044;-72
2021/12/25 08:52:28;;;;;;;1.98;1.52;;;1.70;76.40;;;;;;5029329;28;20036;-74
2021/12/25 08:54:54;;;;;;;2.78;1.85;;;1.70;76.20;;;;;;5029819;28;20030;-74
2021/12/25 08:57:21;;;;;;;2.72;1.73;;;1.70;76.30;;;;;;5031634;28;20034;-72
2021/12/25 08:59:50;;;;;;;3.08;1.88;;;1.70;76.30;;;;;;5029356;28;20048;-72
2021/12/25 09:02:18;;;;;;;3.13;2.00;;;1.70;76.10;;;;;;5038585;28;20139;-72
2021/12/25 09:04:47;;;;;;;5.50;1.38;;;1.60;75.90;;;;;;5070615;28;20033;-69
2021/12/25 09:07:14;;;;;;;2.65;1.50;;;1.60;76.00;;;;;;5035228;28;20069;-74
2021/12/25 09:09:41;;;;;;;2.30;1.38;;;1.60;75.90;;;;;;5035520;28;20047;-67
2021/12/25 09:12:09;;;;;;;2.58;1.35;;;1.60;75.60;;;;;;5036191;28;20033;-77
2021/12/25 09:14:35;;;;;;;2.10;1.38;;;1.60;75.40;;;;;;5043657;28;20060;-71
2021/12/25 09:17:01;;;;;;;2.33;1.35;;;1.60;75.50;;;;;;5045262;28;20037;-76
2021/12/25 09:19:27;;;;;;;3.13;1.38;;;1.60;75.50;;;;;;5033067;28;20031;-69
2021/12/25 09:21:52;;;;;;;2.75;1.13;;;1.60;75.40;;;;;;5042778;28;20022;-76
2021/12/25 09:24:18;;;;;;;1.35;1.10;;;1.50;75.20;;;;;;5044269;28;20029;-70
2021/12/25 09:26:44;;;;;;;1.38;1.00;;;1.50;75.00;;;;;;5035995;28;20036;-67
2021/12/25 09:29:10;;;;;;;2.67;1.00;;;1.50;74.80;;;;;;5037398;28;20511;-74
2021/12/25 09:31:35;;;;;;;1.50;0.80;;;1.50;74.80;;;;;;5038410;28;20051;-71
2021/12/25 09:34:01;;;;;;;2.30;1.58;;;1.50;74.60;;;;;;5025618;28;20036;-72
2021/12/25 09:36:27;;;;;;;4.30;1.20;;;1.50;74.70;;;;;;5027956;28;20540;-72
2021/12/25 09:38:53;;;;;;;1.60;1.00;;;1.50;74.30;;;;;;5035648;28;20043;-78
2021/12/25 09:41:19;;;;;;;3.35;0.93;;;1.50;74.00;;;;;;5038234;28;20029;-76
2021/12/25 09:43:48;;;;;;;2.25;1.10;;;1.50;73.40;;;;;;5037803;28;20028;-72
2021/12/25 09:46:14;;;;;;;1.98;0.95;;;1.50;72.90;;;;;;5032523;28;20465;-73
2021/12/25 09:48:40;;;;;;;4.20;1.35;;;1.50;72.80;;;;;;5047330;28;20056;-71
2021/12/25 09:51:07;;;;;;;1.08;0.80;;;1.50;72.20;;;;;;5032483;28;20067;-73
2021/12/25 09:53:33;;;;;;;1.00;0.90;;;1.50;72.10;;;;;;5046769;28;20467;-70
2021/12/25 09:55:59;;;;;;;1.73;0.85;;;1.50;72.00;;;;;;5035338;28;20034;-71
2021/12/25 09:58:25;;;;;;;1.88;1.10;;;1.50;72.20;;;;;;5040192;28;20421;-72
2021/12/25 10:00:51;;;;;;;1.67;1.08;;;1.50;71.90;;;;;;5016881;28;20074;-73
2021/12/25 10:03:18;;;;;;;2.95;1.17;;;1.50;71.40;;;;;;5032954;28;20116;-73
2021/12/25 10:05:46;;;;;;;1.40;0.82;;;1.50;71.50;;;;;;5029937;28;20053;-73
2021/12/25 10:08:24;;;;;;;3.28;1.10;;;1.50;71.40;;;;;;5034150;28;20033;-72
2021/12/25 10:10:59;;;;;;;1.02;0.80;;;1.50;71.40;;;;;;5029229;28;20036;-72
2021/12/25 10:13:30;;;;;;;1.60;0.80;;;1.50;71.60;;;;;;5040321;28;20107;-73
2021/12/25 10:16:02;;;;;;;3.30;1.15;;;1.50;71.40;;;;;;5032769;28;20052;-73
2021/12/25 10:18:34;;;;;;;1.52;0.70;;;1.50;71.40;;;;;;5023268;28;20641;-72
2021/12/25 10:21:18;;;;;;;1.43;0.80;;;1.50;71.30;;;;;;5030709;28;20025;-73
2021/12/25 10:23:44;;;;;;;1.90;1.08;;;1.50;71.30;;;;;;5044493;28;20891;-73
2021/12/25 10:26:10;;;;;;;2.33;1.13;;;1.60;71.30;;;;;;5038698;28;20017;-72
2021/12/25 10:28:39;;;;;;;2.50;1.00;;;1.90;70.70;;;;;;5027574;28;20049;-72
2021/12/25 10:31:13;;;;;;;1.00;0.80;;;2.20;70.20;;;;;;5031422;28;20025;-72
2021/12/25 10:33:53;;;;;;;1.83;1.38;;;2.50;69.60;;;;;;5030475;28;20144;-72
2021/12/25 10:36:36;;;;;;;1.88;1.10;;;2.90;69.20;;;;;;5022660;28;20034;-72
2021/12/25 10:39:06;;;;;;;2.10;0.75;;;3.30;67.80;;;;;;5031631;28;20044;-72
2021/12/25 10:41:35;;;;;;;0.95;0.85;;;3.60;66.40;;;;;;5035025;28;20017;-72
2021/12/25 10:44:26;;;;;;;2.30;0.90;;;3.70;66.00;;;;;;5043201;28;20037;-72
2021/12/25 10:47:01;;;;;;;2.40;1.27;;;3.80;66.20;;;;;;5033306;28;20499;-73
2021/12/25 10:49:34;;;;;;;0.75;0.70;;;4.10;64.70;;;;;;5032248;28;20028;-72
2021/12/25 10:52:22;;;;;;;1.02;0.73;;;4.40;64.70;;;;;;5029642;28;20029;-72
2021/12/25 10:54:53;;;;;;;1.92;1.00;;;4.40;63.80;;;;;;5022317;28;20356;-72
2021/12/25 10:57:35;;;;;;;1.45;0.90;;;4.80;63.10;;;;;;5024415;28;20182;-72
2021/12/25 11:00:26;;;;;;;1.45;0.88;;;5.40;61.30;;;;;;5028785;28;20051;-73
2021/12/25 11:03:03;;;;;;;1.90;0.75;;;5.60;59.70;;;;;;5035123;28;20033;-72
2021/12/25 11:05:33;;;;;;;2.78;0.90;;;5.60;59.30;;;;;;5033331;28;20035;-72
2021/12/25 11:08:19;;;;;;;2.17;1.00;;;5.80;58.80;;;;;;5036518;28;20027;-73
2021/12/25 11:10:54;;;;;;;1.10;0.80;;;5.90;57.30;;;;;;5023255;28;20033;-73
2021/12/25 11:13:39;;;;;;;1.55;0.90;;;5.80;57.60;;;;;;5038981;28;20033;-73
2021/12/25 11:16:22;;;;;;;1.58;0.85;;;5.70;58.40;;;;;;5049310;28;20051;-73
2021/12/25 11:19:14;;;;;;;1.95;0.70;;;5.80;58.60;;;;;;5044623;28;20074;-73
2021/12/25 11:21:47;;;;;;;2.15;0.90;;;5.80;57.70;;;;;;5036708;28;20021;-72
2021/12/25 11:24:20;;;;;;;0.98;0.63;;;5.80;57.60;;;;;;5038637;28;20477;-72
2021/12/25 11:26:59;;;;;;;1.40;0.80;;;5.90;58.50;;;;;;5029948;28;20029;-73
2021/12/25 11:29:27;;;;;;;1.75;0.65;;;6.80;56.60;;;;;;5036770;28;20025;-72
2021/12/25 11:31:55;;;;;;;1.90;0.93;;;8.40;53.50;;;;;;5027196;28;20029;-73
2021/12/25 11:34:22;;;;;;;1.00;0.90;;;9.60;50.30;;;;;;5039237;28;20112;-73
2021/12/25 11:36:51;;;;;;;1.60;0.95;;;10.70;47.20;;;;;;5030811;28;20068;-73
2021/12/25 11:39:19;;;;;;;1.50;0.90;;;11.50;44.70;;;;;;5030737;28;20028;-73
2021/12/25 11:41:47;;;;;;;1.13;0.70;;;12.20;44.80;;;;;;5029415;28;20494;-73
2021/12/25 11:44:53;;;;;;;1.98;1.42;;;13.00;42.90;;;;;;5027420;28;20026;-73
2021/12/25 11:47:38;;;;;;;2.85;1.00;;;14.00;41.10;;;;;;4998212;28;20049;-73
2021/12/25 11:50:16;;;;;;;2.22;1.17;;;14.40;39.50;;;;;;4987452;28;20108;-73
2021/12/25 11:53:00;;;;;;;1.15;0.70;;;14.90;38.30;;;;;;5012125;28;20046;-73
2021/12/25 11:58:39;;;;;;;1.52;0.70;;;15.00;36.30;;;;;;5023987;28;20048;-73
2021/12/25 12:01:33;;;;;;;2.42;0.70;;;15.10;36.80;;;;;;5028887;28;20376;-73
2021/12/25 12:04:21;;;;;;;1.20;0.75;;;15.50;35.80;;;;;;5021389;28;20033;-74
2021/12/25 12:06:47;;;;;;;1.50;0.80;;;15.90;35.00;;;;;;5040759;28;20033;-74
2021/12/25 12:09:23;;;;;;;0.98;0.80;;;16.20;34.50;;;;;;5013470;28;20063;-73
2021/12/25 12:12:03;;;;;;;1.20;0.73;;;16.30;34.70;;;;;;5029031;28;20048;-73
2021/12/25 12:14:30;;;;;;;1.08;0.80;;;16.50;33.60;;;;;;5028020;28;20480;-73
2021/12/25 12:17:01;;;;;;;1.00;0.90;;;16.70;31.90;;;;;;5028682;28;20578;-74
2021/12/25 12:19:37;;;;;;;1.17;1.00;;;16.70;32.20;;;;;;5028754;28;20037;-74
2021/12/25 12:22:35;;;;;;;1.23;1.00;;;16.80;32.10;;;;;;5027076;28;20034;-74
2021/12/25 12:26:02;;;;;;;1.65;0.90;;;16.90;31.90;;;;;;5028997;28;20042;-74
2021/12/25 12:28:02;;;;;;;1.45;0.90;;;17.20;31.50;;;;;;5028692;28;20033;-74
2021/12/25 12:30:31;;;;;;;0.80;0.80;;;17.40;30.50;;;;;;5026294;28;20026;-74
2021/12/25 12:33:01;;;;;;;1.23;0.90;;;17.60;30.50;;;;;;5027132;28;20041;-74
2021/12/25 12:35:33;;;;;;;1.00;0.82;;;17.70;29.90;;;;;;5031171;28;20068;-74
2021/12/25 12:38:44;;;;;;;1.23;1.02;;;17.60;30.20;;;;;;5048823;28;20029;-74
2021/12/25 12:41:22;;;;;;;1.35;0.88;;;17.40;30.20;;;;;;5047185;28;20392;-74
2021/12/25 12:44:14;;;;;;;1.35;1.23;;;17.20;30.20;;;;;;5044006;28;20021;-74
2021/12/25 12:46:50;;;;;;;1.55;1.02;;;17.10;30.10;;;;;;5029899;28;20017;-73
2021/12/25 12:49:19;;;;;;;3.40;1.95;;;16.60;30.30;;;;;;5030461;28;20025;-73
2021/12/25 12:51:46;;;;;;;2.88;1.80;;;16.10;30.70;;;;;;5029919;28;20029;-73
2021/12/25 12:54:38;;;;;;;1.75;1.02;;;15.50;31.40;;;;;;5031447;28;20088;-73
2021/12/25 12:57:06;;;;;;;1.88;0.90;;;14.60;32.10;;;;;;5012139;28;20401;-73
2021/12/25 12:59:50;;;;;;;2.00;1.08;;;13.80;33.10;;;;;;5030309;28;20095;-73
2021/12/25 13:02:17;;;;;;;1.42;1.00;;;12.90;34.70;;;;;;5035961;28;20087;-73
2021/12/25 13:04:48;;;;;;;1.65;1.17;;;12.10;35.70;;;;;;5044815;28;20021;-73
2021/12/25 13:07:16;;;;;;;1.73;1.00;;;11.40;36.30;;;;;;5031737;28;20029;-73
2021/12/25 13:09:50;;;;;;;1.20;1.10;;;10.80;38.30;;;;;;5037932;28;20029;-73
2021/12/25 13:12:50;;;;;;;1.10;0.90;;;10.20;38.50;;;;;;5046433;28;20033;-81
2021/12/25 13:15:32;;;;;;;1.55;0.90;;;9.80;39.40;;;;;;5051008;28;20045;-80
2021/12/25 13:18:01;;;;;;;2.17;1.15;;;9.40;39.90;;;;;;5046168;28;20061;-80
2021/12/25 13:20:45;;;;;;;1.90;1.00;;;9.10;40.60;;;;;;5043473;28;20052;-80
2021/12/25 13:23:17;;;;;;;1.55;0.80;;;9.10;41.00;;;;;;5041999;28;20080;-81
2021/12/25 13:25:54;;;;;;;3.55;1.02;;;9.50;40.50;;;;;;5048528;28;20461;-80
2021/12/25 13:28:21;;;;;;;2.33;1.20;;;10.40;39.70;;;;;;5039219;28;20025;-82
2021/12/25 13:30:50;;;;;;;1.98;0.98;;;11.00;38.70;;;;;;5031628;28;20068;-80
2021/12/25 13:33:19;;;;;;;1.23;0.70;;;11.40;37.20;;;;;;5039961;28;20086;-72
2021/12/25 13:35:46;;;;;;;1.58;1.00;;;11.50;36.80;;;;;;5027775;28;20049;-73
2021/12/25 13:38:12;;;;;;;2.55;1.15;;;11.00;37.40;;;;;;5033720;28;20043;-73
2021/12/25 13:40:45;;;;;;;1.98;1.02;;;10.60;38.40;;;;;;5032986;28;20413;-73
2021/12/25 13:43:11;;;;;;;2.38;0.90;;;10.90;38.30;;;;;;5032888;28;20495;-73
2021/12/25 13:45:37;;;;;;;1.15;1.00;;;11.80;36.80;;;;;;5051559;28;20033;-73
2021/12/25 13:48:05;;;;;;;2.05;1.35;;;12.60;35.90;;;;;;5037141;28;20095;-73
2021/12/25 13:50:32;;;;;;;2.65;1.48;;;13.30;34.20;;;;;;5013644;28;20065;-73
2021/12/25 13:53:04;;;;;;;1.60;1.02;;;13.90;32.80;;;;;;5030639;28;20452;-73
2021/12/25 13:55:35;;;;;;;1.90;1.23;;;14.30;32.50;;;;;;5040224;28;20018;-73
2021/12/25 13:58:09;;;;;;;1.83;1.30;;;14.70;31.90;;;;;;5029187;28;20044;-73
2021/12/25 14:00:50;;;;;;;2.17;1.38;;;15.10;30.80;;;;;;5020735;28;20029;-73
2021/12/25 14:03:23;;;;;;;1.77;1.33;;;15.20;30.60;;;;;;5039206;28;20029;-73
2021/12/25 14:05:51;;;;;;;1.63;1.08;;;15.00;30.20;;;;;;5038595;28;20483;-73
2021/12/25 14:08:25;;;;;;;2.13;1.52;;;14.40;31.10;;;;;;5029328;28;20099;-73
2021/12/25 14:10:59;;;;;;;2.40;1.40;;;14.00;31.10;;;;;;5040000;28;20432;-73
2021/12/25 14:13:25;;;;;;;1.73;0.93;;;13.40;32.10;;;;;;5040815;28;20111;-73
2021/12/25 14:15:54;;;;;;;2.35;1.08;;;12.60;33.00;;;;;;5036086;28;20521;-73
2021/12/25 14:18:23;;;;;;;1.80;1.02;;;11.80;33.90;;;;;;5057282;28;20025;-73
2021/12/25 14:20:49;;;;;;;1.75;1.20;;;11.00;34.50;;;;;;5039226;28;20060;-72
2021/12/25 14:23:18;;;;;;;1.88;0.90;;;10.30;35.70;;;;;;5041726;28;20107;-72
2021/12/25 14:25:58;;;;;;;2.72;1.30;;;9.70;36.70;;;;;;5031464;28;20020;-73